Time;durP1;ratioP1;P1;durP2;ratioP2;P2;SDS_P1;SDS_P2;PMS_P1;PMS_P2;Temp;Humidity;BMP_temperature;BMP_pressure;BME280_temperature;BME280_humidity;BME280_pressure;Samples;Min_cycle;Max_cycle;Signal;HPM_P1;HPM_P2
2022/04/06 00:02:24;;;;;;;7.90;4.70;;;;;;;;;;4974749;28;20081;-75
2022/04/06 00:04:49;;;;;;;8.77;5.00;;;;;;;;;;4975906;28;20023;-75
2022/04/06 00:07:15;;;;;;;8.13;5.00;;;;;;;;;;4978146;28;20049;-76
2022/04/06 00:09:40;;;;;;;8.27;5.22;;;;;;;;;;4977235;28;20019;-77
2022/04/06 00:12:07;;;;;;;7.30;4.35;;;;;;;;;;4976065;28;20505;-77
2022/04/06 00:14:32;;;;;;;9.75;5.38;;;;;;;;;;4974824;28;20442;-76
2022/04/06 00:17:03;;;;;;;9.07;5.07;;;;;;;;;;4976878;28;20105;-76
2022/04/06 00:19:30;;;;;;;7.60;4.68;;;;;;;;;;4974725;28;20026;-76
2022/04/06 00:21:55;;;;;;;8.02;4.80;;;;;;;;;;4973170;28;20022;-77
2022/04/06 00:24:21;;;;;;;9.10;5.10;;;;;;;;;;4974044;28;20200;-76
2022/04/06 00:26:52;;;;;;;8.98;5.53;;;;;;;;;;4975974;28;20552;-76
2022/04/06 00:29:17;;;;;;;9.23;5.47;;;;;;;;;;4976957;28;20030;-76
2022/04/06 00:31:43;;;;;;;9.23;5.43;;;;;;;;;;4978854;28;20027;-76
2022/04/06 00:34:08;;;;;;;11.35;4.90;;;;;;;;;;4977064;28;20074;-78
2022/04/06 00:36:33;;;;;;;7.53;4.45;;;;;;;;;;4976679;28;20019;-76
2022/04/06 00:38:58;;;;;;;9.65;5.75;;;;;;;;;;4977003;28;20019;-76
2022/04/06 00:41:23;;;;;;;9.02;5.20;;;;;;;;;;4975423;28;20019;-76
2022/04/06 00:44:07;;;;;;;9.43;5.93;;;;;;;;;;4978070;28;20029;-77
2022/04/06 00:46:32;;;;;;;8.05;5.03;;;;;;;;;;4976314;28;20019;-77
2022/04/06 00:48:58;;;;;;;8.95;5.43;;;;;;;;;;4977059;28;20021;-76
2022/04/06 00:51:23;;;;;;;9.93;5.53;;;;;;;;;;4976882;28;20110;-76
2022/04/06 00:53:48;;;;;;;13.32;5.85;;;;;;;;;;4977614;28;20054;-75
2022/04/06 00:56:13;;;;;;;11.00;6.10;;;;;;;;;;4978557;28;20027;-77
2022/04/06 00:58:38;;;;;;;10.25;5.03;;;;;;;;;;4981775;28;20039;-76
2022/04/06 01:01:04;;;;;;;9.63;5.28;;;;;;;;;;4982086;28;20018;-77
2022/04/06 01:03:29;;;;;;;9.18;5.30;;;;;;;;;;4983069;28;20010;-77
2022/04/06 01:05:54;;;;;;;12.98;6.15;;;;;;;;;;4981297;28;20541;-77
2022/04/06 01:08:19;;;;;;;11.07;5.90;;;;;;;;;;4981329;28;20033;-76
2022/04/06 01:10:45;;;;;;;9.75;5.85;;;;;;;;;;4981801;28;20026;-76
2022/04/06 01:13:11;;;;;;;11.13;6.00;;;;;;;;;;4978998;28;20505;-77
2022/04/06 01:15:36;;;;;;;11.10;6.25;;;;;;;;;;4978325;28;20029;-77
2022/04/06 01:18:01;;;;;;;11.23;6.80;;;;;;;;;;4976826;28;20378;-76
2022/04/06 01:20:26;;;;;;;11.15;6.97;;;;;;;;;;4975352;28;20026;-76
2022/04/06 01:22:52;;;;;;;9.80;6.10;;;;;;;;;;4974531;28;20027;-75
2022/04/06 01:25:17;;;;;;;10.73;6.18;;;;;;;;;;4976816;28;20058;-76
2022/04/06 01:27:42;;;;;;;12.50;6.85;;;;;;;;;;4975141;28;20019;-76
2022/04/06 01:30:07;;;;;;;11.75;6.57;;;;;;;;;;4976484;28;20015;-77
2022/04/06 01:32:35;;;;;;;10.82;6.68;;;;;;;;;;4977993;28;20078;-77
2022/04/06 01:35:00;;;;;;;10.52;6.75;;;;;;;;;;4978791;28;20022;-75
2022/04/06 01:37:26;;;;;;;11.02;5.93;;;;;;;;;;4979041;28;20027;-76
2022/04/06 01:39:51;;;;;;;12.02;6.60;;;;;;;;;;4984046;28;20110;-77
2022/04/06 01:42:17;;;;;;;11.55;6.55;;;;;;;;;;4979103;28;20039;-74
2022/04/06 01:44:44;;;;;;;9.52;5.80;;;;;;;;;;4979522;28;20077;-76
2022/04/06 01:47:10;;;;;;;9.77;6.43;;;;;;;;;;4981221;28;20027;-76
2022/04/06 01:52:19;;;;;;;10.60;5.78;;;;;;;;;;4977839;28;20085;-78
2022/04/06 01:54:49;;;;;;;10.32;5.68;;;;;;;;;;4977484;28;20026;-77
2022/04/06 01:57:15;;;;;;;10.20;6.03;;;;;;;;;;4975652;28;20398;-77
2022/04/06 01:59:41;;;;;;;8.73;5.55;;;;;;;;;;4974896;28;20023;-76
2022/04/06 02:02:07;;;;;;;11.32;5.47;;;;;;;;;;4976101;28;20023;-77
2022/04/06 02:04:32;;;;;;;12.57;5.65;;;;;;;;;;4976081;28;20027;-76
2022/04/06 02:06:58;;;;;;;10.13;5.88;;;;;;;;;;4976130;28;20023;-78
2022/04/06 02:09:23;;;;;;;11.80;5.60;;;;;;;;;;4975337;28;20022;-76
2022/04/06 02:11:48;;;;;;;12.95;6.43;;;;;;;;;;4976848;28;20022;-76
2022/04/06 02:14:14;;;;;;;12.90;7.25;;;;;;;;;;4976272;28;20602;-77
2022/04/06 02:16:39;;;;;;;13.85;6.82;;;;;;;;;;4977481;28;20518;-76
2022/04/06 02:19:07;;;;;;;12.60;7.07;;;;;;;;;;4976320;28;20029;-77
2022/04/06 02:21:33;;;;;;;13.25;7.20;;;;;;;;;;4975814;28;20053;-76
2022/04/06 02:23:58;;;;;;;12.68;7.32;;;;;;;;;;4975599;28;20393;-77
2022/04/06 02:26:23;;;;;;;13.88;7.40;;;;;;;;;;4974574;28;20417;-76
2022/04/06 02:28:49;;;;;;;14.40;8.00;;;;;;;;;;4976166;28;20057;-76
2022/04/06 02:31:14;;;;;;;13.25;8.25;;;;;;;;;;4977423;28;20437;-76
2022/04/06 02:33:39;;;;;;;14.60;7.88;;;;;;;;;;4974294;28;20457;-76
2022/04/06 02:36:04;;;;;;;13.85;7.85;;;;;;;;;;4975343;28;20023;-76
2022/04/06 02:38:30;;;;;;;14.98;8.27;;;;;;;;;;4975825;28;20026;-76
2022/04/06 02:40:55;;;;;;;13.10;8.02;;;;;;;;;;4974827;28;20019;-77
2022/04/06 02:43:20;;;;;;;18.48;9.38;;;;;;;;;;4974598;28;20014;-76
2022/04/06 02:45:47;;;;;;;14.00;8.80;;;;;;;;;;4973325;28;20030;-76
2022/04/06 02:48:12;;;;;;;14.82;8.90;;;;;;;;;;4974505;28;20033;-76
2022/04/06 02:50:37;;;;;;;12.55;8.02;;;;;;;;;;4974491;28;20456;-77
2022/04/06 02:53:02;;;;;;;15.90;9.27;;;;;;;;;;4974083;28;20037;-77
2022/04/06 02:55:28;;;;;;;16.17;9.07;;;;;;;;;;4974362;28;20027;-77
2022/04/06 02:57:53;;;;;;;16.92;8.23;;;;;;;;;;4974212;28;20475;-76
2022/04/06 03:00:18;;;;;;;16.92;9.15;;;;;;;;;;4972933;28;20050;-76
2022/04/06 03:02:44;;;;;;;17.80;9.57;;;;;;;;;;4972596;28;20030;-76
2022/04/06 03:05:09;;;;;;;13.75;9.23;;;;;;;;;;4974124;28;20030;-77
2022/04/06 03:07:34;;;;;;;16.83;9.73;;;;;;;;;;4974098;28;20077;-75
2022/04/06 03:10:00;;;;;;;12.75;8.68;;;;;;;;;;4973798;28;20022;-76
2022/04/06 03:12:25;;;;;;;14.93;8.43;;;;;;;;;;4973824;28;20027;-76
2022/04/06 03:14:51;;;;;;;15.57;8.90;;;;;;;;;;4973710;28;20485;-76
2022/04/06 03:17:16;;;;;;;16.10;8.98;;;;;;;;;;4973654;28;20027;-76
2022/04/06 03:19:42;;;;;;;17.20;9.27;;;;;;;;;;4972500;28;20050;-76
2022/04/06 03:22:07;;;;;;;15.07;9.20;;;;;;;;;;4973057;28;20158;-76
2022/04/06 03:24:33;;;;;;;17.52;9.48;;;;;;;;;;4973782;28;20561;-76
2022/04/06 03:26:58;;;;;;;18.50;10.50;;;;;;;;;;4973995;28;20023;-77
2022/04/06 03:29:23;;;;;;;16.55;9.43;;;;;;;;;;4974077;28;20453;-77
2022/04/06 03:31:48;;;;;;;18.10;10.00;;;;;;;;;;4973979;28;20027;-77
2022/04/06 03:34:13;;;;;;;19.27;8.93;;;;;;;;;;4975437;28;20425;-77
2022/04/06 03:36:39;;;;;;;18.33;9.30;;;;;;;;;;4974672;28;20478;-78
2022/04/06 03:39:04;;;;;;;17.45;10.25;;;;;;;;;;4974380;28;20030;-76
2022/04/06 03:41:29;;;;;;;21.88;9.40;;;;;;;;;;4972484;28;20057;-77
2022/04/06 03:43:54;;;;;;;14.10;8.15;;;;;;;;;;4974389;28;20053;-76
2022/04/06 03:46:19;;;;;;;15.63;7.60;;;;;;;;;;4975631;28;20019;-76
2022/04/06 03:48:45;;;;;;;13.50;7.43;;;;;;;;;;4976820;28;20426;-77
2022/04/06 03:51:10;;;;;;;12.05;5.85;;;;;;;;;;4977942;28;20517;-77
2022/04/06 03:53:35;;;;;;;14.68;6.32;;;;;;;;;;4974919;28;20031;-77
2022/04/06 03:56:00;;;;;;;13.40;5.93;;;;;;;;;;4974997;28;20106;-76
2022/04/06 03:58:26;;;;;;;15.90;5.75;;;;;;;;;;4974085;28;20458;-77
2022/04/06 04:00:51;;;;;;;17.40;5.03;;;;;;;;;;4973921;28;20066;-77
2022/04/06 04:03:16;;;;;;;8.27;3.97;;;;;;;;;;4972712;28;20050;-77
2022/04/06 04:05:41;;;;;;;13.23;4.85;;;;;;;;;;4972512;28;20031;-76
2022/04/06 04:08:06;;;;;;;11.93;5.18;;;;;;;;;;4972103;28;20074;-76
2022/04/06 04:10:32;;;;;;;10.60;4.50;;;;;;;;;;4972324;28;20022;-77
2022/04/06 04:12:57;;;;;;;10.13;4.25;;;;;;;;;;4974203;28;20040;-76
2022/04/06 04:15:22;;;;;;;11.25;4.15;;;;;;;;;;4974721;28;20019;-78
2022/04/06 04:17:48;;;;;;;11.30;4.25;;;;;;;;;;4974227;28;20513;-77
2022/04/06 04:20:13;;;;;;;10.95;4.28;;;;;;;;;;4974009;28;20532;-77
2022/04/06 04:22:38;;;;;;;9.32;4.28;;;;;;;;;;4973098;28;20033;-77
2022/04/06 04:25:03;;;;;;;12.77;4.50;;;;;;;;;;4972990;28;20030;-75
2022/04/06 04:27:29;;;;;;;12.57;4.03;;;;;;;;;;4971704;28;20363;-76
2022/04/06 04:29:55;;;;;;;10.68;3.70;;;;;;;;;;4973428;28;20029;-76
2022/04/06 04:32:20;;;;;;;15.40;4.10;;;;;;;;;;4972758;28;20062;-76
2022/04/06 04:34:46;;;;;;;15.02;5.28;;;;;;;;;;4977129;28;20019;-77
2022/04/06 04:37:11;;;;;;;9.77;3.85;;;;;;;;;;4975597;28;20505;-76
2022/04/06 04:39:36;;;;;;;11.50;4.38;;;;;;;;;;4976567;28;20030;-76
2022/04/06 04:42:01;;;;;;;9.05;3.72;;;;;;;;;;4976504;28;20022;-77
2022/04/06 04:44:26;;;;;;;13.60;4.65;;;;;;;;;;4976514;28;20019;-77
2022/04/06 04:46:52;;;;;;;9.13;3.85;;;;;;;;;;4976216;28;20443;-77
2022/04/06 04:49:17;;;;;;;10.05;4.45;;;;;;;;;;4974746;28;20062;-76
2022/04/06 04:51:43;;;;;;;12.40;4.18;;;;;;;;;;4975099;28;20026;-77
2022/04/06 04:54:08;;;;;;;10.68;4.40;;;;;;;;;;4976357;28;20366;-76
2022/04/06 04:56:34;;;;;;;7.32;4.93;;;;;;;;;;4976334;28;20023;-77
2022/04/06 04:58:59;;;;;;;12.43;5.80;;;;;;;;;;4976134;28;20029;-77
2022/04/06 05:01:25;;;;;;;12.82;5.47;;;;;;;;;;4977196;28;20027;-76
2022/04/06 05:03:50;;;;;;;15.82;6.75;;;;;;;;;;4977350;28;20026;-76
2022/04/06 05:06:15;;;;;;;14.23;6.32;;;;;;;;;;4977464;28;20033;-77
2022/04/06 05:08:40;;;;;;;14.23;6.47;;;;;;;;;;4976789;28;20026;-76
2022/04/06 05:11:06;;;;;;;12.70;6.78;;;;;;;;;;4977046;28;20030;-76
2022/04/06 05:13:31;;;;;;;13.20;6.13;;;;;;;;;;4975557;28;20054;-77
2022/04/06 05:15:57;;;;;;;17.27;7.40;;;;;;;;;;4976881;28;20022;-76
2022/04/06 05:18:22;;;;;;;13.25;6.90;;;;;;;;;;4976124;28;20031;-76
2022/04/06 05:20:48;;;;;;;12.68;6.60;;;;;;;;;;4977511;28;20043;-75
2022/04/06 05:23:13;;;;;;;15.32;7.38;;;;;;;;;;4979685;28;20015;-77
2022/04/06 05:25:38;;;;;;;11.55;7.00;;;;;;;;;;4978882;28;20034;-76
2022/04/06 05:28:04;;;;;;;12.85;6.93;;;;;;;;;;4980139;28;20015;-77
2022/04/06 05:30:31;;;;;;;13.70;7.10;;;;;;;;;;4977728;28;20035;-77
2022/04/06 05:32:57;;;;;;;12.07;6.80;;;;;;;;;;4977630;28;20031;-76
2022/04/06 05:35:26;;;;;;;17.08;7.20;;;;;;;;;;4978037;28;20114;-77
2022/04/06 05:37:51;;;;;;;13.05;6.78;;;;;;;;;;4976421;28;20019;-76
2022/04/06 05:40:17;;;;;;;14.20;7.00;;;;;;;;;;4977297;28;20122;-78
2022/04/06 05:42:43;;;;;;;13.07;6.90;;;;;;;;;;4975343;28;20022;-76
2022/04/06 05:45:08;;;;;;;13.20;7.03;;;;;;;;;;4976220;28;20023;-77
2022/04/06 05:47:34;;;;;;;11.77;6.25;;;;;;;;;;4977914;28;20031;-76
2022/04/06 05:49:59;;;;;;;12.73;6.18;;;;;;;;;;4977277;28;20022;-77
2022/04/06 05:52:25;;;;;;;10.38;6.00;;;;;;;;;;4975903;28;20027;-78
2022/04/06 05:54:51;;;;;;;14.10;5.85;;;;;;;;;;4974796;28;20034;-76
2022/04/06 05:57:16;;;;;;;13.50;6.60;;;;;;;;;;4976563;28;20266;-78
2022/04/06 05:59:41;;;;;;;14.00;6.53;;;;;;;;;;4976652;28;20549;-77
2022/04/06 06:02:07;;;;;;;11.90;6.35;;;;;;;;;;4976813;28;20458;-77
2022/04/06 06:04:33;;;;;;;13.98;6.00;;;;;;;;;;4974647;28;20029;-78
2022/04/06 06:06:58;;;;;;;16.35;6.88;;;;;;;;;;4973940;28;20054;-77
2022/04/06 06:09:24;;;;;;;12.68;5.88;;;;;;;;;;4974377;28;20027;-77
2022/04/06 06:11:49;;;;;;;11.77;5.93;;;;;;;;;;4973857;28;20568;-78
2022/04/06 06:14:14;;;;;;;11.20;5.88;;;;;;;;;;4975286;28;20031;-77
2022/04/06 06:16:44;;;;;;;11.80;5.47;;;;;;;;;;4975396;28;20018;-78
2022/04/06 06:19:10;;;;;;;10.90;5.70;;;;;;;;;;4975494;28;20031;-77
2022/04/06 06:21:35;;;;;;;11.88;4.97;;;;;;;;;;4973754;28;20045;-77
2022/04/06 06:24:05;;;;;;;11.70;4.82;;;;;;;;;;4975078;28;20452;-78
2022/04/06 06:26:30;;;;;;;8.65;5.07;;;;;;;;;;4973997;28;20034;-77
2022/04/06 06:28:55;;;;;;;8.88;4.50;;;;;;;;;;4974947;28;20019;-77
2022/04/06 06:31:21;;;;;;;10.57;5.78;;;;;;;;;;4972833;28;20377;-78
2022/04/06 06:33:47;;;;;;;11.30;4.90;;;;;;;;;;4974899;28;20019;-77
2022/04/06 06:36:12;;;;;;;10.60;5.28;;;;;;;;;;4974438;28;20504;-76
2022/04/06 06:38:37;;;;;;;12.80;5.28;;;;;;;;;;4974551;28;20023;-76
2022/04/06 06:41:02;;;;;;;11.35;4.75;;;;;;;;;;4974864;28;20109;-77
2022/04/06 06:43:27;;;;;;;11.20;4.95;;;;;;;;;;4974844;28;20440;-77
2022/04/06 06:45:53;;;;;;;11.95;5.63;;;;;;;;;;4975599;28;20443;-78
2022/04/06 06:48:18;;;;;;;10.45;5.10;;;;;;;;;;4973292;28;20022;-77
2022/04/06 06:50:43;;;;;;;11.07;4.57;;;;;;;;;;4974365;28;20030;-77
2022/04/06 06:53:08;;;;;;;11.32;5.68;;;;;;;;;;4975011;28;20019;-77
2022/04/06 06:55:34;;;;;;;8.18;4.50;;;;;;;;;;4972551;28;20434;-77
2022/04/06 06:57:59;;;;;;;10.35;5.28;;;;;;;;;;4973823;28;20046;-76
2022/04/06 07:00:24;;;;;;;9.68;5.25;;;;;;;;;;4975600;28;20018;-78
2022/04/06 07:02:49;;;;;;;8.75;5.35;;;;;;;;;;4975609;28;20385;-77
2022/04/06 07:05:15;;;;;;;10.52;5.38;;;;;;;;;;4975590;28;20026;-77
2022/04/06 07:07:51;;;;;;;8.63;4.90;;;;;;;;;;4975977;28;20494;-77
2022/04/06 07:10:16;;;;;;;9.25;5.20;;;;;;;;;;4976166;28;20397;-77
2022/04/06 07:12:41;;;;;;;10.55;5.45;;;;;;;;;;4975659;28;20027;-77
2022/04/06 07:15:07;;;;;;;12.40;4.97;;;;;;;;;;4974258;28;20030;-77
2022/04/06 07:17:32;;;;;;;12.95;5.82;;;;;;;;;;4975407;28;20033;-78
2022/04/06 07:19:57;;;;;;;9.35;5.20;;;;;;;;;;4976698;28;20014;-78
2022/04/06 07:22:22;;;;;;;11.63;5.82;;;;;;;;;;4974829;28;20027;-78
2022/04/06 07:24:47;;;;;;;9.38;4.95;;;;;;;;;;4974141;28;20101;-77
2022/04/06 07:27:13;;;;;;;10.60;5.28;;;;;;;;;;4974389;28;20493;-77
2022/04/06 07:29:38;;;;;;;13.20;5.28;;;;;;;;;;4975190;28;20063;-77
2022/04/06 07:32:04;;;;;;;11.25;4.75;;;;;;;;;;4974326;28;20538;-78
2022/04/06 07:34:29;;;;;;;14.27;5.30;;;;;;;;;;4974083;28;20264;-77
2022/04/06 07:36:54;;;;;;;11.05;5.43;;;;;;;;;;4974019;28;20030;-76
2022/04/06 07:39:19;;;;;;;9.60;5.00;;;;;;;;;;4974417;28;20471;-76
2022/04/06 07:41:45;;;;;;;8.55;4.80;;;;;;;;;;4976782;28;20061;-77
2022/04/06 07:44:10;;;;;;;11.52;4.75;;;;;;;;;;4975005;28;20026;-77
2022/04/06 07:46:35;;;;;;;8.95;5.07;;;;;;;;;;4974225;28;20022;-78
2022/04/06 07:49:00;;;;;;;12.45;4.82;;;;;;;;;;4974430;28;20431;-76
2022/04/06 07:51:25;;;;;;;8.27;4.90;;;;;;;;;;4972784;28;20022;-77
2022/04/06 07:53:51;;;;;;;9.88;4.57;;;;;;;;;;4973230;28;20015;-76
2022/04/06 07:56:16;;;;;;;11.45;4.82;;;;;;;;;;4973963;28;20089;-78
2022/04/06 07:58:41;;;;;;;9.48;4.20;;;;;;;;;;4973904;28;20025;-77
2022/04/06 08:01:08;;;;;;;8.65;4.32;;;;;;;;;;4974483;28;20045;-79
2022/04/06 08:03:33;;;;;;;10.10;5.20;;;;;;;;;;4973680;28;20425;-77
2022/04/06 08:05:58;;;;;;;14.65;4.57;;;;;;;;;;4972178;28;20019;-76
2022/04/06 08:08:23;;;;;;;12.88;4.53;;;;;;;;;;4973754;28;20025;-77
2022/04/06 08:10:49;;;;;;;8.98;4.45;;;;;;;;;;4973890;28;20050;-77
2022/04/06 08:13:14;;;;;;;8.38;4.25;;;;;;;;;;4974216;28;20169;-77
2022/04/06 08:15:40;;;;;;;12.93;5.07;;;;;;;;;;4974240;28;20382;-77
2022/04/06 08:18:06;;;;;;;8.48;4.32;;;;;;;;;;4973523;28;20073;-77
2022/04/06 08:20:31;;;;;;;8.52;3.88;;;;;;;;;;4973777;28;20026;-76
2022/04/06 08:22:56;;;;;;;9.57;4.93;;;;;;;;;;4972988;28;20019;-77
2022/04/06 08:25:22;;;;;;;13.75;4.47;;;;;;;;;;4973263;28;20101;-77
2022/04/06 08:27:47;;;;;;;11.23;5.20;;;;;;;;;;4972684;28;20471;-76
2022/04/06 08:30:13;;;;;;;11.25;5.60;;;;;;;;;;4972414;28;20390;-77
2022/04/06 08:32:38;;;;;;;11.57;4.28;;;;;;;;;;4983751;23;20550;-71
2022/04/06 08:35:04;;;;;;;9.02;4.38;;;;;;;;;;4971012;28;20023;-71
2022/04/06 08:37:30;;;;;;;9.23;4.03;;;;;;;;;;4972475;28;20253;-71
2022/04/06 08:39:55;;;;;;;9.30;4.78;;;;;;;;;;4972474;28;20054;-71
2022/04/06 08:42:21;;;;;;;8.70;4.10;;;;;;;;;;4971281;28;20058;-71
2022/04/06 08:44:46;;;;;;;13.15;4.10;;;;;;;;;;4972509;28;20018;-71
2022/04/06 08:47:11;;;;;;;9.02;4.38;;;;;;;;;;4972466;28;20062;-71
2022/04/06 08:49:39;;;;;;;10.95;3.90;;;;;;;;;;4971142;28;20257;-71
2022/04/06 08:52:05;;;;;;;11.73;4.22;;;;;;;;;;4972387;28;20041;-71
2022/04/06 08:54:30;;;;;;;8.63;4.32;;;;;;;;;;4972257;28;20106;-71
2022/04/06 08:56:55;;;;;;;11.15;3.85;;;;;;;;;;4971335;28;20023;-71
2022/04/06 08:59:21;;;;;;;7.32;3.38;;;;;;;;;;4972675;28;20061;-71
2022/04/06 09:01:46;;;;;;;8.60;3.58;;;;;;;;;;4971211;28;20371;-71
2022/04/06 09:04:11;;;;;;;11.85;3.97;;;;;;;;;;4972363;28;20102;-71
2022/04/06 09:06:41;;;;;;;10.07;3.72;;;;;;;;;;4972458;28;20382;-70
2022/04/06 09:09:07;;;;;;;9.38;3.70;;;;;;;;;;4970869;28;20485;-71
2022/04/06 09:11:40;;;;;;;9.02;4.07;;;;;;;;;;4972041;28;20058;-71
2022/04/06 09:14:05;;;;;;;9.93;3.50;;;;;;;;;;4972334;28;20027;-71
2022/04/06 09:16:34;;;;;;;9.15;3.92;;;;;;;;;;4972574;28;20084;-71
2022/04/06 09:19:14;;;;;;;10.85;3.45;;;;;;;;;;4973100;28;20019;-71
2022/04/06 09:21:43;;;;;;;10.27;4.00;;;;;;;;;;4974039;28;20105;-71
2022/04/06 09:24:15;;;;;;;7.32;3.28;;;;;;;;;;4975533;28;20403;-71
2022/04/06 09:26:40;;;;;;;8.98;3.50;;;;;;;;;;4974319;28;20034;-71
2022/04/06 09:29:06;;;;;;;8.88;3.72;;;;;;;;;;4975537;28;20019;-71
2022/04/06 09:31:36;;;;;;;8.07;3.55;;;;;;;;;;4975361;28;20422;-71
2022/04/06 09:34:02;;;;;;;10.98;4.22;;;;;;;;;;4975034;28;20034;-71
2022/04/06 09:36:28;;;;;;;8.18;3.88;;;;;;;;;;4974255;28;20023;-71
2022/04/06 09:38:54;;;;;;;9.88;3.60;;;;;;;;;;4975663;28;20404;-71
2022/04/06 09:41:19;;;;;;;11.65;3.80;;;;;;;;;;4974167;28;20047;-71
2022/04/06 09:43:45;;;;;;;9.35;3.60;;;;;;;;;;4973752;28;20068;-71
2022/04/06 09:49:05;;;;;;;8.52;3.05;;;;;;;;;;4975641;28;20102;-72
2022/04/06 09:51:30;;;;;;;6.60;3.53;;;;;;;;;;4974029;28;20545;-71
2022/04/06 09:53:56;;;;;;;10.18;2.95;;;;;;;;;;4974995;28;20062;-71
2022/04/06 09:56:22;;;;;;;10.60;4.38;;;;;;;;;;4973384;28;20079;-71
2022/04/06 09:58:48;;;;;;;8.15;3.50;;;;;;;;;;4973680;28;20049;-72
2022/04/06 10:01:14;;;;;;;10.00;2.97;;;;;;;;;;4973660;28;20454;-71
2022/04/06 10:03:40;;;;;;;7.15;2.60;;;;;;;;;;4973484;28;20015;-70
2022/04/06 10:06:06;;;;;;;8.35;2.72;;;;;;;;;;4975178;28;20537;-70
2022/04/06 10:08:32;;;;;;;6.90;3.33;;;;;;;;;;4974786;28;20035;-70
2022/04/06 10:10:59;;;;;;;6.78;2.70;;;;;;;;;;4974786;28;20029;-72
2022/04/06 10:13:25;;;;;;;8.70;2.05;;;;;;;;;;4973348;28;20118;-70
2022/04/06 10:15:50;;;;;;;5.15;2.10;;;;;;;;;;4974511;28;20122;-71
2022/04/06 10:18:17;;;;;;;7.20;2.10;;;;;;;;;;4974952;28;20450;-70
2022/04/06 10:20:52;;;;;;;5.45;2.13;;;;;;;;;;4973368;28;20027;-72
2022/04/06 10:23:17;;;;;;;4.70;1.77;;;;;;;;;;4973029;28;20387;-71
2022/04/06 10:25:48;;;;;;;6.32;1.90;;;;;;;;;;4974589;28;20030;-72
2022/04/06 10:28:14;;;;;;;8.18;1.75;;;;;;;;;;4974488;28;20023;-71
2022/04/06 10:30:39;;;;;;;5.50;1.80;;;;;;;;;;4974262;28;20015;-71
2022/04/06 10:33:19;;;;;;;4.72;1.90;;;;;;;;;;4972671;28;20117;-70
2022/04/06 10:35:44;;;;;;;3.40;1.55;;;;;;;;;;4974326;28;20015;-71
2022/04/06 10:38:09;;;;;;;7.28;1.90;;;;;;;;;;4974755;28;20029;-71
2022/04/06 10:40:44;;;;;;;4.97;1.70;;;;;;;;;;4974281;28;20023;-71
2022/04/06 10:43:27;;;;;;;7.93;2.30;;;;;;;;;;4974036;28;20359;-71
2022/04/06 10:45:53;;;;;;;7.30;1.83;;;;;;;;;;4974207;28;20033;-70
2022/04/06 10:48:18;;;;;;;6.15;1.85;;;;;;;;;;4974292;28;20022;-71
2022/04/06 10:50:44;;;;;;;6.45;2.10;;;;;;;;;;4972758;28;20027;-71
2022/04/06 10:53:19;;;;;;;9.55;1.98;;;;;;;;;;4972206;28;20117;-72
2022/04/06 10:56:12;;;;;;;9.43;1.90;;;;;;;;;;4974068;28;20031;-71
2022/04/06 10:58:55;;;;;;;6.95;1.80;;;;;;;;;;4974141;28;20045;-71
2022/04/06 11:01:26;;;;;;;7.53;2.15;;;;;;;;;;4973899;28;20026;-71
2022/04/06 11:03:56;;;;;;;5.43;2.00;;;;;;;;;;4973610;28;20014;-71
2022/04/06 11:06:40;;;;;;;4.95;2.00;;;;;;;;;;4973835;28;20050;-71
2022/04/06 11:12:06;;;;;;;9.73;1.77;;;;;;;;;;4973818;28;20580;-71
2022/04/06 11:14:32;;;;;;;5.47;2.40;;;;;;;;;;4973465;28;20061;-72
2022/04/06 11:16:57;;;;;;;10.15;2.13;;;;;;;;;;4973405;28;20058;-70
2022/04/06 11:19:23;;;;;;;6.63;1.30;;;;;;;;;;4973456;28;20026;-70
2022/04/06 11:21:53;;;;;;;5.80;1.50;;;;;;;;;;4973315;28;20023;-70
2022/04/06 11:24:19;;;;;;;7.10;1.52;;;;;;;;;;4972159;28;20015;-70
2022/04/06 11:26:45;;;;;;;7.30;1.70;;;;;;;;;;4971905;28;20023;-70
2022/04/06 11:29:11;;;;;;;7.07;1.65;;;;;;;;;;4971802;28;20375;-70
2022/04/06 11:32:01;;;;;;;6.25;1.35;;;;;;;;;;4973031;28;20019;-69
2022/04/06 11:34:36;;;;;;;7.30;1.60;;;;;;;;;;4973079;28;20035;-70
2022/04/06 11:37:03;;;;;;;2.67;1.48;;;;;;;;;;4973037;28;20046;-70
2022/04/06 11:39:29;;;;;;;7.70;1.65;;;;;;;;;;4973171;28;20014;-70
2022/04/06 11:41:55;;;;;;;4.97;1.35;;;;;;;;;;4972143;28;20034;-71
2022/04/06 11:44:23;;;;;;;4.10;1.00;;;;;;;;;;4972665;28;20440;-71
2022/04/06 11:46:48;;;;;;;5.67;1.47;;;;;;;;;;4971455;28;20023;-70
2022/04/06 11:49:19;;;;;;;4.50;1.20;;;;;;;;;;4972904;28;20564;-70
2022/04/06 11:51:44;;;;;;;7.45;1.85;;;;;;;;;;4971555;28;20077;-70
2022/04/06 11:54:10;;;;;;;4.55;1.15;;;;;;;;;;4972883;28;20478;-70
2022/04/06 11:56:35;;;;;;;5.07;1.30;;;;;;;;;;4971859;28;20057;-70
2022/04/06 11:59:01;;;;;;;2.67;1.08;;;;;;;;;;4971958;28;20462;-70
2022/04/06 12:01:39;;;;;;;6.38;1.45;;;;;;;;;;4972770;28;20022;-70
2022/04/06 12:04:04;;;;;;;;;;;;;;;;;;4973146;28;20532;-70
2022/04/06 12:06:32;;;;;;;3.97;1.30;;;;;;;;;;4973075;28;20365;-70
2022/04/06 12:08:57;;;;;;;4.75;1.38;;;;;;;;;;4972704;28;20030;-70
2022/04/06 12:11:22;;;;;;;7.82;1.25;;;;;;;;;;4972419;28;20018;-70
2022/04/06 12:13:48;;;;;;;8.05;1.77;;;;;;;;;;4972701;28;20097;-70
2022/04/06 12:16:13;;;;;;;5.82;1.52;;;;;;;;;;4971292;28;20035;-70
2022/04/06 12:18:39;;;;;;;6.72;2.03;;;;;;;;;;4971359;28;20109;-70
2022/04/06 12:21:17;;;;;;;4.40;1.40;;;;;;;;;;4971385;28;20025;-70
2022/04/06 12:23:47;;;;;;;10.07;2.70;;;;;;;;;;4972677;28;20038;-70
2022/04/06 12:26:12;;;;;;;7.25;1.63;;;;;;;;;;4972650;28;20336;-70
2022/04/06 12:28:38;;;;;;;4.85;1.60;;;;;;;;;;4972645;28;20439;-69
2022/04/06 12:31:07;;;;;;;6.82;1.60;;;;;;;;;;4972547;28;20451;-70
2022/04/06 12:33:38;;;;;;;7.85;1.63;;;;;;;;;;4970987;28;20030;-69
2022/04/06 12:36:13;;;;;;;4.35;1.73;;;;;;;;;;4971076;28;20027;-69
2022/04/06 12:38:40;;;;;;;8.55;1.67;;;;;;;;;;4970996;28;20126;-70
2022/04/06 12:41:11;;;;;;;5.72;1.73;;;;;;;;;;4971105;28;20023;-70
2022/04/06 12:43:40;;;;;;;5.60;1.50;;;;;;;;;;4972096;28;20070;-69
2022/04/06 12:46:05;;;;;;;;;;;;;;;;;;4972932;28;20049;-70
2022/04/06 12:48:31;;;;;;;7.30;1.67;;;;;;;;;;4972299;28;20317;-69
2022/04/06 12:50:57;;;;;;;6.85;1.80;;;;;;;;;;4970883;28;20447;-70
2022/04/06 12:53:23;;;;;;;12.18;2.63;;;;;;;;;;4973607;28;20050;-69
2022/04/06 12:56:08;;;;;;;7.05;1.70;;;;;;;;;;4976122;28;20050;-69
2022/04/06 12:58:33;;;;;;;5.78;2.15;;;;;;;;;;4976168;28;20030;-70
2022/04/06 13:00:59;;;;;;;9.35;1.65;;;;;;;;;;4976335;28;20018;-70
2022/04/06 13:03:25;;;;;;;7.75;1.80;;;;;;;;;;4974120;28;20025;-70
2022/04/06 13:05:51;;;;;;;7.30;1.80;;;;;;;;;;4974676;28;20023;-70
2022/04/06 13:08:17;;;;;;;7.57;1.85;;;;;;;;;;4973950;28;20513;-70
2022/04/06 13:10:43;;;;;;;4.70;1.70;;;;;;;;;;4974290;28;20034;-70
2022/04/06 13:13:08;;;;;;;4.68;2.10;;;;;;;;;;4975486;28;20046;-70
2022/04/06 13:15:36;;;;;;;5.97;2.75;;;;;;;;;;4975541;28;20082;-70
2022/04/06 13:18:01;;;;;;;5.35;2.33;;;;;;;;;;4974016;28;20113;-70
2022/04/06 13:20:26;;;;;;;6.53;2.13;;;;;;;;;;4975266;28;20099;-72
2022/04/06 13:22:52;;;;;;;6.22;3.10;;;;;;;;;;4973683;28;20367;-71
2022/04/06 13:25:17;;;;;;;6.95;2.67;;;;;;;;;;4975217;28;20018;-70
2022/04/06 13:27:43;;;;;;;6.57;2.47;;;;;;;;;;4974154;28;20720;-69
2022/04/06 13:30:10;;;;;;;8.98;2.20;;;;;;;;;;4975384;28;20022;-69
2022/04/06 13:32:36;;;;;;;5.80;2.10;;;;;;;;;;4974832;28;20030;-69
2022/04/06 13:35:01;;;;;;;6.32;2.13;;;;;;;;;;4973866;28;20022;-69
2022/04/06 13:37:27;;;;;;;6.32;2.47;;;;;;;;;;4974784;28;20026;-69
2022/04/06 13:39:53;;;;;;;6.53;2.25;;;;;;;;;;4974943;28;20448;-69
2022/04/06 13:42:18;;;;;;;9.25;2.33;;;;;;;;;;4973727;28;20019;-69
2022/04/06 13:44:44;;;;;;;10.77;2.70;;;;;;;;;;4974102;28;20027;-69
2022/04/06 13:47:10;;;;;;;7.15;2.17;;;;;;;;;;4973473;28;20023;-69
2022/04/06 13:49:35;;;;;;;7.80;2.70;;;;;;;;;;4973966;28;20469;-68
2022/04/06 13:52:03;;;;;;;7.93;2.65;;;;;;;;;;4973642;28;20027;-69
2022/04/06 13:54:32;;;;;;;8.85;2.40;;;;;;;;;;4974793;28;20093;-68
2022/04/06 13:56:57;;;;;;;;;;;;;;;;;;4975343;28;20030;-69
2022/04/06 13:59:23;;;;;;;7.20;2.13;;;;;;;;;;4975042;28;19910;-69
2022/04/06 14:01:48;;;;;;;6.50;2.30;;;;;;;;;;4973771;28;20023;-69
2022/04/06 14:04:14;;;;;;;10.23;2.33;;;;;;;;;;4974204;28;20047;-70
2022/04/06 14:06:40;;;;;;;6.40;2.40;;;;;;;;;;4974535;28;20026;-71
2022/04/06 14:09:07;;;;;;;7.30;2.95;;;;;;;;;;4973180;28;20133;-69
2022/04/06 14:11:35;;;;;;;5.75;2.10;;;;;;;;;;4974764;28;20093;-72
2022/04/06 14:14:00;;;;;;;6.07;2.17;;;;;;;;;;4974552;28;20107;-68
2022/04/06 14:16:26;;;;;;;6.05;2.08;;;;;;;;;;4974254;28;20102;-68
2022/04/06 14:18:55;;;;;;;6.18;2.03;;;;;;;;;;4972836;28;20023;-68
2022/04/06 14:21:21;;;;;;;8.43;1.90;;;;;;;;;;4974371;28;20097;-69
2022/04/06 14:23:46;;;;;;;10.50;2.45;;;;;;;;;;4972740;28;20483;-69
2022/04/06 14:26:12;;;;;;;10.75;2.38;;;;;;;;;;4974340;28;20474;-69
2022/04/06 14:28:38;;;;;;;5.50;2.30;;;;;;;;;;4974315;28;20509;-70
2022/04/06 14:31:04;;;;;;;6.50;2.22;;;;;;;;;;4974282;28;20073;-69
2022/04/06 14:33:32;;;;;;;6.55;2.30;;;;;;;;;;4973917;28;20177;-70
2022/04/06 14:35:57;;;;;;;6.75;2.35;;;;;;;;;;4973999;28;20054;-69
2022/04/06 14:38:23;;;;;;;8.77;2.97;;;;;;;;;;4972853;28;20058;-70
2022/04/06 14:40:49;;;;;;;5.70;2.00;;;;;;;;;;4974052;28;20011;-70
2022/04/06 14:43:14;;;;;;;7.90;2.65;;;;;;;;;;4973884;28;20015;-69